createdAt,value
2018-10-09T00:01:17.550Z,60.40
2018-10-09T00:03:46.356Z,60.40
2018-10-09T00:06:15.166Z,60.40
2018-10-09T00:08:43.975Z,60.40
2018-10-09T00:11:12.786Z,60.60
2018-10-09T00:13:41.589Z,60.60
2018-10-09T00:16:10.402Z,60.70
2018-10-09T00:18:39.207Z,60.90
2018-10-09T00:21:08.043Z,61.00
2018-10-09T00:23:37.242Z,61.20
2018-10-09T00:26:06.200Z,61.40
2018-10-09T00:28:34.911Z,61.50
2018-10-09T00:31:03.731Z,61.70
2018-10-09T00:33:32.507Z,61.80
2018-10-09T00:36:01.309Z,61.90
2018-10-09T00:38:30.102Z,61.90
2018-10-09T00:40:59.065Z,61.90
2018-10-09T00:43:27.866Z,61.90
2018-10-09T00:45:56.974Z,62.00
2018-10-09T00:48:25.762Z,62.00
2018-10-09T00:50:54.600Z,62.10
2018-10-09T00:53:23.421Z,62.10
2018-10-09T00:55:52.235Z,62.20
2018-10-09T00:58:21.729Z,62.20
2018-10-09T01:00:50.559Z,62.40
2018-10-09T01:03:19.386Z,62.20
2018-10-09T01:05:48.201Z,62.30
2018-10-09T01:08:17.447Z,62.40
2018-10-09T01:10:46.253Z,62.60
2018-10-09T01:13:15.051Z,62.70
2018-10-09T01:15:43.861Z,62.70
2018-10-09T01:18:12.653Z,62.70
2018-10-09T01:20:41.506Z,62.80
2018-10-09T01:23:10.317Z,62.80
2018-10-09T01:25:39.124Z,63.00
2018-10-09T01:28:07.981Z,63.00
2018-10-09T01:30:36.896Z,63.00
2018-10-09T01:33:05.754Z,63.20
2018-10-09T01:35:34.572Z,63.10
2018-10-09T01:38:03.358Z,63.10
2018-10-09T01:40:32.166Z,63.30
2018-10-09T01:43:00.941Z,63.30
2018-10-09T01:45:29.781Z,64.10
2018-10-09T01:47:58.569Z,63.40
2018-10-09T01:50:27.394Z,63.50
2018-10-09T01:52:56.404Z,63.50
2018-10-09T01:55:25.237Z,63.60
2018-10-09T01:57:54.029Z,63.50
2018-10-09T02:00:23.413Z,63.60
2018-10-09T02:02:52.283Z,63.70
2018-10-09T02:05:21.082Z,63.70
2018-10-09T02:07:49.982Z,63.90
2018-10-09T02:10:18.785Z,64.00
2018-10-09T02:12:47.565Z,64.00
2018-10-09T02:15:16.484Z,64.00
2018-10-09T02:17:45.314Z,64.10
2018-10-09T02:20:14.099Z,64.20
2018-10-09T02:22:42.902Z,64.20
2018-10-09T02:25:11.791Z,64.20
2018-10-09T02:27:40.594Z,64.20
2018-10-09T02:30:10.002Z,64.20
2018-10-09T02:32:38.810Z,64.30
2018-10-09T02:35:08.337Z,64.50
2018-10-09T02:37:37.364Z,64.60
2018-10-09T02:40:07.018Z,64.60
2018-10-09T02:42:35.816Z,64.70
2018-10-09T02:45:04.693Z,64.70
2018-10-09T02:47:33.498Z,64.80
2018-10-09T02:50:02.293Z,64.70
2018-10-09T02:52:31.102Z,64.80
2018-10-09T02:54:59.906Z,64.70
2018-10-09T02:57:31.707Z,64.80
2018-10-09T03:00:00.970Z,65.00
2018-10-09T03:02:30.294Z,65.10
2018-10-09T03:04:59.107Z,65.10
2018-10-09T03:07:27.914Z,65.10
2018-10-09T03:09:56.713Z,65.20
2018-10-09T03:12:25.514Z,65.30
2018-10-09T03:14:54.378Z,65.30
2018-10-09T03:17:23.182Z,65.30
2018-10-09T03:19:51.971Z,65.30
2018-10-09T03:22:21.095Z,65.40
2018-10-09T03:24:49.916Z,65.50
2018-10-09T03:27:18.724Z,65.50
2018-10-09T03:29:47.509Z,65.50
2018-10-09T03:32:16.330Z,65.50
2018-10-09T03:34:45.123Z,65.50
2018-10-09T03:37:13.978Z,65.60
2018-10-09T03:39:42.789Z,65.60
2018-10-09T03:42:11.590Z,65.60
2018-10-09T03:44:40.718Z,65.60
2018-10-09T03:47:09.550Z,65.70
2018-10-09T03:49:38.366Z,65.90
2018-10-09T03:52:07.332Z,65.90
2018-10-09T03:54:36.169Z,65.90
2018-10-09T03:57:04.989Z,65.90
2018-10-09T03:59:33.826Z,65.90
2018-10-09T04:02:02.637Z,66.00
2018-10-09T04:04:34.830Z,66.00
2018-10-09T04:07:03.999Z,66.10
2018-10-09T04:09:32.791Z,65.90
2018-10-09T04:12:01.607Z,66.00
2018-10-09T04:14:30.414Z,66.00
2018-10-09T04:16:59.213Z,65.90
2018-10-09T04:19:28.028Z,65.80
2018-10-09T04:21:56.953Z,65.90
2018-10-09T04:24:25.738Z,65.70
2018-10-09T04:26:54.559Z,65.80
2018-10-09T04:29:23.726Z,66.60
2018-10-09T04:31:52.507Z,65.70
2018-10-09T04:34:21.305Z,65.60
2018-10-09T04:36:50.145Z,65.70
2018-10-09T04:39:18.939Z,65.70
2018-10-09T04:41:47.772Z,65.70
2018-10-09T04:44:16.602Z,65.60
2018-10-09T04:46:45.409Z,65.60
2018-10-09T04:49:14.266Z,65.50
2018-10-09T04:51:43.330Z,65.50
2018-10-09T04:54:12.158Z,65.70
2018-10-09T04:56:40.961Z,65.70
2018-10-09T04:59:09.769Z,65.60
2018-10-09T05:01:38.566Z,65.50
2018-10-09T05:04:07.470Z,65.50
2018-10-09T05:06:36.854Z,65.40
2018-10-09T05:09:09.377Z,66.20
2018-10-09T05:11:38.588Z,65.50
2018-10-09T05:14:07.518Z,65.50
2018-10-09T05:16:36.741Z,65.50
2018-10-09T05:19:05.665Z,65.60
2018-10-09T05:21:34.782Z,65.70
2018-10-09T05:24:03.640Z,65.60
2018-10-09T05:26:32.494Z,65.70
2018-10-09T05:29:01.322Z,65.70
2018-10-09T05:31:30.178Z,65.70
2018-10-09T05:33:59.518Z,65.80
2018-10-09T05:36:28.357Z,65.90
2018-10-09T05:38:57.153Z,66.10
2018-10-09T05:41:25.974Z,66.10
2018-10-09T05:43:54.777Z,66.20
2018-10-09T05:46:23.603Z,66.50
2018-10-09T05:48:52.423Z,66.50
2018-10-09T05:51:21.206Z,66.60
2018-10-09T05:53:50.000Z,66.70
2018-10-09T05:56:19.506Z,66.60
2018-10-09T05:58:48.281Z,66.60
2018-10-09T06:01:17.097Z,66.60
2018-10-09T06:03:45.946Z,66.50
2018-10-09T06:06:14.750Z,66.50
2018-10-09T06:08:44.208Z,66.40
2018-10-09T06:11:13.029Z,66.50
2018-10-09T06:13:41.864Z,66.50
2018-10-09T06:16:10.669Z,66.50
2018-10-09T06:18:39.930Z,67.30
2018-10-09T06:21:08.768Z,66.60
2018-10-09T06:23:37.593Z,66.70
2018-10-09T06:26:06.474Z,66.70
2018-10-09T06:28:35.327Z,66.80
2018-10-09T06:31:04.117Z,66.90
2018-10-09T06:33:32.999Z,66.90
2018-10-09T06:36:01.809Z,66.90
2018-10-09T06:38:30.614Z,66.90
2018-10-09T06:40:59.925Z,66.90
2018-10-09T06:43:28.706Z,66.90
2018-10-09T06:45:58.510Z,66.90
2018-10-09T06:48:27.329Z,66.80
2018-10-09T06:50:56.439Z,66.90
2018-10-09T06:53:25.558Z,66.90
2018-10-09T06:55:54.377Z,66.80
2018-10-09T06:58:23.189Z,66.90
2018-10-09T07:00:52.060Z,67.00
2018-10-09T07:03:21.366Z,66.90
2018-10-09T07:05:50.171Z,66.90
2018-10-09T07:08:19.423Z,66.80
2018-10-09T07:10:48.556Z,66.70
2018-10-09T07:13:17.360Z,66.70
2018-10-09T07:15:46.485Z,66.60
2018-10-09T07:18:15.345Z,66.40
2018-10-09T07:20:44.178Z,66.80
2018-10-09T07:23:13.038Z,66.20
2018-10-09T07:25:42.248Z,66.00
2018-10-09T07:28:11.044Z,65.80
2018-10-09T07:30:39.832Z,65.80
2018-10-09T07:33:08.767Z,65.70
2018-10-09T07:35:37.583Z,65.60
2018-10-09T07:38:06.419Z,65.40
2018-10-09T07:40:35.228Z,65.40
2018-10-09T07:43:04.034Z,65.30
2018-10-09T07:45:32.845Z,65.10
2018-10-09T07:48:02.143Z,65.00
2018-10-09T07:50:31.093Z,64.80
2018-10-09T07:52:59.983Z,64.90
2018-10-09T07:55:28.744Z,64.80
2018-10-09T07:57:57.541Z,64.50
2018-10-09T08:00:26.365Z,64.30
2018-10-09T08:02:55.197Z,64.20
2018-10-09T08:05:24.011Z,63.90
2018-10-09T08:07:52.801Z,63.90
2018-10-09T08:10:22.169Z,63.80
2018-10-09T08:12:51.225Z,63.60
2018-10-09T08:15:20.026Z,63.50
2018-10-09T08:17:48.861Z,63.30
2018-10-09T08:20:17.682Z,63.20
2018-10-09T08:22:46.554Z,62.70
2018-10-09T08:25:15.494Z,63.10
2018-10-09T08:27:44.302Z,62.20
2018-10-09T08:30:13.129Z,62.80
2018-10-09T08:32:42.330Z,62.70
2018-10-09T08:35:11.145Z,62.70
2018-10-09T08:37:39.980Z,62.50
2018-10-09T08:40:09.093Z,62.50
2018-10-09T08:42:37.902Z,62.40
2018-10-09T08:45:09.027Z,62.30
2018-10-09T08:47:37.885Z,62.20
2018-10-09T08:50:08.510Z,62.00
2018-10-09T08:52:37.339Z,61.90
2018-10-09T08:55:07.760Z,61.60
2018-10-09T08:57:36.603Z,61.50
2018-10-09T09:00:06.242Z,61.10
2018-10-09T09:02:35.092Z,61.00
2018-10-09T09:05:03.910Z,60.80
2018-10-09T09:07:32.693Z,60.70
2018-10-09T09:10:01.512Z,60.50
2018-10-09T09:12:30.300Z,60.20
2018-10-09T09:14:59.594Z,60.10
2018-10-09T09:17:28.897Z,60.00
2018-10-09T09:19:57.690Z,59.70
2018-10-09T09:22:26.490Z,59.60
2018-10-09T09:24:55.290Z,59.50
2018-10-09T09:27:24.186Z,59.40
2018-10-09T09:29:52.931Z,59.40
2018-10-09T09:32:21.894Z,59.30
2018-10-09T09:34:50.708Z,59.30
2018-10-09T09:37:19.538Z,59.20
2018-10-09T09:39:48.844Z,59.10
2018-10-09T09:42:17.651Z,59.10
2018-10-09T09:44:46.450Z,58.90
2018-10-09T09:47:15.305Z,58.90
2018-10-09T09:49:44.123Z,58.70
2018-10-09T09:52:12.976Z,58.70
2018-10-09T09:54:41.762Z,58.70
2018-10-09T09:57:10.746Z,58.70
2018-10-09T09:59:39.552Z,58.60
2018-10-09T10:02:08.846Z,58.60
2018-10-09T10:04:37.674Z,58.50
2018-10-09T10:07:06.531Z,58.50
2018-10-09T10:09:35.374Z,58.20
2018-10-09T10:12:04.196Z,58.30
2018-10-09T10:14:33.021Z,58.10
2018-10-09T10:17:02.208Z,57.90
2018-10-09T10:19:31.031Z,57.60
2018-10-09T10:21:59.833Z,57.40
2018-10-09T10:24:29.207Z,57.00
2018-10-09T10:26:58.002Z,57.00
2018-10-09T10:29:26.807Z,56.70
2018-10-09T10:31:55.627Z,56.60
2018-10-09T10:34:24.447Z,56.40
2018-10-09T10:36:53.258Z,56.20
2018-10-09T10:39:22.070Z,56.00
2018-10-09T10:41:50.892Z,55.60
2018-10-09T10:44:19.755Z,55.30
2018-10-09T10:46:49.083Z,55.00
2018-10-09T10:49:24.606Z,54.80
2018-10-09T10:51:53.371Z,54.70
2018-10-09T10:54:22.167Z,54.60
2018-10-09T10:56:50.996Z,53.80
2018-10-09T10:59:19.807Z,53.60
2018-10-09T11:01:48.669Z,53.20
2018-10-09T11:04:17.423Z,53.00
2018-10-09T11:06:46.659Z,52.50
2018-10-09T11:09:16.463Z,51.80
2018-10-09T11:11:45.271Z,51.60
2018-10-09T11:14:14.073Z,51.10
2018-10-09T11:16:42.903Z,50.50
2018-10-09T11:19:12.009Z,50.20
2018-10-09T11:21:40.923Z,49.80
2018-10-09T11:24:09.679Z,49.50
2018-10-09T11:26:38.515Z,49.50
2018-10-09T11:29:07.796Z,49.10
2018-10-09T11:31:36.641Z,48.70
2018-10-09T11:34:05.485Z,48.80
2018-10-09T11:36:40.902Z,48.70
2018-10-09T11:39:10.048Z,48.60
2018-10-09T11:41:38.936Z,48.10
2018-10-09T11:44:07.773Z,47.60
2018-10-09T11:46:37.211Z,47.90
2018-10-09T11:49:07.338Z,47.30
2018-10-09T11:51:36.726Z,47.10
2018-10-09T11:54:05.582Z,46.80
2018-10-09T11:56:34.412Z,46.80
2018-10-09T11:59:03.367Z,46.70
2018-10-09T12:01:32.079Z,46.90
2018-10-09T12:04:00.907Z,46.00
2018-10-09T12:06:29.751Z,46.40
2018-10-09T12:08:58.567Z,45.90
2018-10-09T12:11:27.354Z,45.50
2018-10-09T12:13:56.630Z,45.80
2018-10-09T12:16:25.451Z,45.50
2018-10-09T12:18:54.271Z,45.30
2018-10-09T12:21:23.578Z,45.60
2018-10-09T12:23:52.334Z,45.30
2018-10-09T12:26:21.152Z,45.20
2018-10-09T12:28:49.969Z,44.80
2018-10-09T12:31:19.789Z,44.90
2018-10-09T12:33:48.649Z,44.70
2018-10-09T12:36:17.801Z,44.70
2018-10-09T12:38:46.657Z,44.70
2018-10-09T12:41:15.537Z,44.60
2018-10-09T12:43:44.469Z,45.00
2018-10-09T12:46:13.267Z,45.30
2018-10-09T12:48:42.097Z,45.40
2018-10-09T12:51:10.941Z,45.00
2018-10-09T12:53:39.743Z,45.00
2018-10-09T12:56:09.514Z,45.20
2018-10-09T12:58:38.796Z,45.00
2018-10-09T13:01:07.730Z,44.70
2018-10-09T13:03:36.565Z,44.70
2018-10-09T13:06:05.378Z,44.70
2018-10-09T13:08:34.241Z,44.70
2018-10-09T13:11:03.046Z,45.00
2018-10-09T13:13:31.918Z,44.90
2018-10-09T13:16:00.765Z,45.00
2018-10-09T13:18:29.632Z,44.80
2018-10-09T13:20:59.134Z,44.80
2018-10-09T13:23:28.149Z,44.60
2018-10-09T13:25:57.005Z,43.80
2018-10-09T13:28:26.023Z,45.20
2018-10-09T13:30:54.933Z,44.90
2018-10-09T13:33:23.657Z,44.90
2018-10-09T13:35:52.812Z,45.00
2018-10-09T13:38:21.701Z,45.20
2018-10-09T13:40:50.535Z,45.30
2018-10-09T13:43:19.785Z,45.40
2018-10-09T13:45:48.638Z,45.20
2018-10-09T13:48:17.450Z,44.90
2018-10-09T13:50:46.424Z,45.20
2018-10-09T13:53:15.223Z,45.10
2018-10-09T13:55:44.132Z,45.00
2018-10-09T13:58:12.978Z,45.00
2018-10-09T14:00:41.788Z,45.20
2018-10-09T14:03:10.795Z,45.30
2018-10-09T14:05:39.946Z,45.20
2018-10-09T14:08:08.842Z,44.90
2018-10-09T14:10:37.666Z,45.20
2018-10-09T14:13:06.578Z,45.20
2018-10-09T14:15:35.378Z,45.40
2018-10-09T14:18:04.188Z,45.40
2018-10-09T14:20:33.170Z,45.50
2018-10-09T14:23:02.002Z,45.30
2018-10-09T14:25:31.308Z,45.20
2018-10-09T14:28:00.438Z,45.40
2018-10-09T14:30:29.335Z,45.60
2018-10-09T14:32:58.117Z,45.60
2018-10-09T14:35:26.977Z,45.60
2018-10-09T14:37:55.782Z,45.70
2018-10-09T14:40:24.612Z,45.80
2018-10-09T14:42:53.442Z,46.00
2018-10-09T14:45:22.304Z,46.20
2018-10-09T14:47:51.215Z,46.30
2018-10-09T14:50:20.370Z,46.40
2018-10-09T14:52:49.180Z,46.60
2018-10-09T14:55:18.252Z,46.70
2018-10-09T14:57:47.066Z,46.90
2018-10-09T15:00:15.906Z,47.00
2018-10-09T15:02:44.770Z,47.00
2018-10-09T15:05:13.634Z,47.10
2018-10-09T15:07:42.523Z,47.20
2018-10-09T15:10:11.337Z,47.00
2018-10-09T15:12:40.688Z,47.00
2018-10-09T15:15:09.524Z,47.20
2018-10-09T15:17:38.421Z,47.10
2018-10-09T15:25:07.364Z,47.10
2018-10-09T15:27:36.681Z,47.50
2018-10-09T15:30:05.634Z,47.80
2018-10-09T15:32:34.995Z,48.00
2018-10-09T15:35:03.820Z,48.10
2018-10-09T15:37:32.619Z,48.10
2018-10-09T15:40:01.482Z,48.20
2018-10-09T15:42:30.887Z,48.40
2018-10-09T15:44:59.877Z,48.50
2018-10-09T15:47:28.724Z,48.60
2018-10-09T15:49:57.530Z,48.70
2018-10-09T15:52:26.355Z,48.80
2018-10-09T15:54:55.442Z,49.00
2018-10-09T15:57:24.245Z,49.00
2018-10-09T15:59:53.057Z,49.20
2018-10-09T16:02:21.979Z,49.30
2018-10-09T16:04:50.868Z,49.40
2018-10-09T16:07:19.722Z,49.60
2018-10-09T16:09:48.558Z,49.80
2018-10-09T16:12:17.392Z,49.90
2018-10-09T16:14:46.185Z,50.80
2018-10-09T16:17:15.642Z,50.30
2018-10-09T16:19:44.436Z,50.40
2018-10-09T16:22:13.313Z,50.70
2018-10-09T16:24:42.121Z,50.40
2018-10-09T16:27:10.918Z,51.00
2018-10-09T16:29:40.100Z,51.20
2018-10-09T16:32:08.954Z,51.40
2018-10-09T16:34:37.713Z,51.50
2018-10-09T16:37:06.575Z,51.70
2018-10-09T16:39:35.762Z,51.80
2018-10-09T16:42:04.576Z,52.10
2018-10-09T16:44:33.376Z,52.30
2018-10-09T16:47:06.070Z,52.40
2018-10-09T16:49:36.553Z,52.50
2018-10-09T16:52:05.337Z,52.80
2018-10-09T16:54:34.201Z,52.90
2018-10-09T16:57:03.021Z,53.70
2018-10-09T16:59:31.822Z,53.40
2018-10-09T17:02:01.297Z,53.60
2018-10-09T17:04:30.125Z,53.80
2018-10-09T17:06:58.932Z,53.90
2018-10-09T17:09:27.745Z,54.30
2018-10-09T17:11:56.547Z,54.40
2018-10-09T17:14:25.377Z,54.50
2018-10-09T17:16:54.167Z,54.80
2018-10-09T17:19:22.971Z,54.90
2018-10-09T17:21:51.774Z,55.10
2018-10-09T17:24:20.864Z,55.30
2018-10-09T17:26:49.713Z,55.40
2018-10-09T17:29:18.454Z,55.50
2018-10-09T17:31:47.641Z,55.80
2018-10-09T17:34:16.443Z,55.90
2018-10-09T17:36:45.256Z,56.00
2018-10-09T17:39:14.154Z,56.20
2018-10-09T17:41:42.897Z,56.40
2018-10-09T17:44:11.690Z,56.50
2018-10-09T17:46:40.974Z,56.80
2018-10-09T17:49:09.775Z,56.80
2018-10-09T17:51:38.602Z,57.10
2018-10-09T17:54:07.418Z,57.20
2018-10-09T17:56:36.323Z,57.30
2018-10-09T17:59:05.126Z,57.40
2018-10-09T18:01:33.931Z,57.50
2018-10-09T18:04:02.749Z,57.70
2018-10-09T18:06:31.572Z,57.90
2018-10-09T18:09:00.778Z,58.10
2018-10-09T18:11:29.571Z,58.20
2018-10-09T18:13:58.363Z,58.10
2018-10-09T18:16:27.169Z,58.40
2018-10-09T18:18:55.950Z,58.60
2018-10-09T18:21:24.794Z,58.70
2018-10-09T18:23:53.632Z,58.90
2018-10-09T18:26:22.437Z,59.00
2018-10-09T18:28:51.278Z,59.00
2018-10-09T18:31:20.501Z,59.20
2018-10-09T18:33:49.677Z,59.90
2018-10-09T18:36:21.369Z,59.50
2018-10-09T18:38:50.326Z,59.70
2018-10-09T18:41:19.255Z,59.70
2018-10-09T18:43:47.981Z,59.70
2018-10-09T18:46:16.811Z,59.90
2018-10-09T18:48:45.617Z,60.00
2018-10-09T18:51:14.868Z,60.10
2018-10-09T18:53:44.570Z,60.20
2018-10-09T18:56:13.384Z,60.30
2018-10-09T18:58:42.221Z,60.40
2018-10-09T19:01:11.057Z,60.30
2018-10-09T19:03:39.842Z,60.50
2018-10-09T19:06:08.702Z,60.60
2018-10-09T19:08:37.520Z,60.80
2018-10-09T19:11:06.336Z,60.90
2018-10-09T19:13:35.498Z,60.90
2018-10-09T19:16:04.326Z,61.00
2018-10-09T19:18:33.132Z,61.10
2018-10-09T19:21:01.957Z,61.20
2018-10-09T19:23:30.763Z,61.30
2018-10-09T19:25:59.543Z,61.50
2018-10-09T19:28:28.372Z,61.50
2018-10-09T19:30:57.171Z,61.60
2018-10-09T19:33:26.050Z,61.60
2018-10-09T19:35:55.618Z,61.80
2018-10-09T19:38:24.417Z,61.90
2018-10-09T19:40:53.209Z,62.20
2018-10-09T19:43:22.044Z,62.30
2018-10-09T19:45:50.867Z,62.90
2018-10-09T19:48:19.751Z,62.50
2018-10-09T19:50:48.657Z,62.50
2018-10-09T19:53:17.368Z,62.40
2018-10-09T19:55:46.181Z,63.30
2018-10-09T19:58:15.488Z,62.70
2018-10-09T20:00:44.298Z,62.90
2018-10-09T20:03:13.116Z,62.90
2018-10-09T20:05:41.929Z,63.00
2018-10-09T20:08:10.755Z,63.00
2018-10-09T20:10:39.579Z,63.20
2018-10-09T20:13:08.389Z,63.40
2018-10-09T20:15:37.201Z,63.30
2018-10-09T20:18:06.160Z,63.40
2018-10-09T20:20:35.446Z,63.60
2018-10-09T20:23:04.233Z,63.80
2018-10-09T20:25:33.054Z,63.80
2018-10-09T20:28:01.856Z,63.90
2018-10-09T20:30:30.658Z,64.10
2018-10-09T20:32:59.449Z,64.30
2018-10-09T20:35:28.274Z,64.30
2018-10-09T20:37:57.645Z,64.40
2018-10-09T20:40:26.517Z,64.50
2018-10-09T20:42:55.674Z,64.50
2018-10-09T20:45:24.514Z,64.60
2018-10-09T20:47:53.310Z,64.80
2018-10-09T20:50:22.149Z,64.90
2018-10-09T20:52:50.937Z,65.00
2018-10-09T20:55:19.738Z,65.00
2018-10-09T20:57:48.551Z,65.10
2018-10-09T21:00:17.363Z,65.30
2018-10-09T21:02:46.173Z,65.40
2018-10-09T21:05:15.456Z,65.40
2018-10-09T21:07:44.216Z,65.40
2018-10-09T21:10:13.017Z,65.60
2018-10-09T21:12:41.926Z,65.70
2018-10-09T21:15:10.729Z,65.70
2018-10-09T21:17:39.632Z,65.80
2018-10-09T21:20:08.730Z,65.90
2018-10-09T21:22:37.552Z,66.00
2018-10-09T21:25:08.207Z,65.90
2018-10-09T21:27:37.338Z,66.30
2018-10-09T21:30:06.163Z,66.40
2018-10-09T21:32:34.960Z,66.30
2018-10-09T21:35:03.815Z,66.50
2018-10-09T21:37:32.594Z,66.50
2018-10-09T21:40:01.920Z,66.60
2018-10-09T21:42:30.809Z,66.80
2018-10-09T21:44:59.614Z,66.90
2018-10-09T21:47:28.435Z,66.90
2018-10-09T21:49:57.523Z,67.10
2018-10-09T21:52:26.351Z,67.10
2018-10-09T21:54:55.157Z,67.20
2018-10-09T21:57:23.953Z,67.30
2018-10-09T21:59:52.787Z,67.40
2018-10-09T22:02:21.579Z,67.70
2018-10-09T22:04:50.373Z,67.50
2018-10-09T22:07:19.329Z,67.50
2018-10-09T22:09:48.393Z,67.70
2018-10-09T22:12:17.598Z,67.80
2018-10-09T22:14:46.413Z,67.90
2018-10-09T22:17:15.226Z,67.90
2018-10-09T22:19:44.041Z,67.90
2018-10-09T22:22:12.840Z,68.00
2018-10-09T22:24:41.628Z,68.10
2018-10-09T22:27:10.467Z,68.00
2018-10-09T22:29:39.262Z,68.20
2018-10-09T22:32:08.077Z,68.20
2018-10-09T22:34:37.203Z,68.20
2018-10-09T22:37:06.201Z,68.30
2018-10-09T22:39:34.997Z,68.20
2018-10-09T22:42:04.336Z,68.40
2018-10-09T22:44:33.148Z,68.50
2018-10-09T22:47:01.947Z,68.50
2018-10-09T22:49:30.963Z,68.50
2018-10-09T22:51:59.788Z,68.60
2018-10-09T22:54:28.628Z,68.60
2018-10-09T22:56:58.045Z,68.60
2018-10-09T22:59:27.240Z,68.70
2018-10-09T23:01:56.055Z,68.80
2018-10-09T23:04:24.891Z,68.80
2018-10-09T23:06:53.722Z,68.80
2018-10-09T23:09:22.529Z,69.00
2018-10-09T23:11:51.359Z,69.00
2018-10-09T23:14:20.146Z,69.00
2018-10-09T23:16:48.973Z,69.10
2018-10-09T23:19:18.063Z,69.20
2018-10-09T23:21:46.874Z,69.20
2018-10-09T23:24:15.658Z,69.10
2018-10-09T23:26:44.465Z,69.30
2018-10-09T23:29:13.250Z,69.40
2018-10-09T23:31:42.057Z,69.40
2018-10-09T23:34:10.875Z,69.50
2018-10-09T23:36:39.667Z,69.40
2018-10-09T23:39:09.025Z,69.50
2018-10-09T23:41:38.385Z,69.60
2018-10-09T23:44:07.590Z,69.50
2018-10-09T23:46:36.399Z,69.70
2018-10-09T23:49:05.615Z,69.70
2018-10-09T23:51:34.413Z,69.60
2018-10-09T23:54:03.226Z,69.60
2018-10-09T23:56:32.040Z,69.60
2018-10-09T23:59:00.833Z,69.70
